Time;durP1;ratioP1;P1;durP2;ratioP2;P2;SDS_P1;SDS_P2;PMS_P1;PMS_P2;Temp;Humidity;BMP_temperature;BMP_pressure;BME280_temperature;BME280_humidity;BME280_pressure;Samples;Min_cycle;Max_cycle;Signal;HPM_P1;HPM_P2
2022/05/24 00:00:18;;;;;;;7.35;6.65;;;16.80;99.90;;;;;;4959686;28;20211;-64
2022/05/24 00:02:45;;;;;;;6.80;6.20;;;16.70;99.90;;;;;;4971592;28;20208;-63
2022/05/24 00:05:14;;;;;;;6.72;6.13;;;16.70;99.90;;;;;;4945347;28;20235;-63
2022/05/24 00:07:41;;;;;;;7.22;6.10;;;16.70;99.90;;;;;;4967365;28;20324;-63
2022/05/24 00:10:12;;;;;;;6.32;5.68;;;16.60;99.90;;;;;;4957501;28;20795;-64
2022/05/24 00:12:40;;;;;;;7.78;6.72;;;16.50;99.90;;;;;;4952102;28;20970;-63
2022/05/24 00:15:23;;;;;;;6.85;6.18;;;16.50;99.90;;;;;;4970029;28;20614;-64
2022/05/24 00:17:53;;;;;;;6.60;6.00;;;16.50;99.90;;;;;;4970101;28;20462;-64
2022/05/24 00:20:22;;;;;;;7.18;5.20;;;16.40;99.90;;;;;;4946069;28;20290;-64
2022/05/24 00:22:49;;;;;;;5.63;5.07;;;16.20;99.90;;;;;;4970687;28;20213;-64
2022/05/24 00:25:16;;;;;;;7.05;5.13;;;16.20;99.90;;;;;;4963825;28;20877;-64
2022/05/24 00:27:44;;;;;;;6.53;5.60;;;16.10;99.90;;;;;;4962567;28;20337;-64
2022/05/24 00:30:11;;;;;;;6.97;6.28;;;16.00;99.90;;;;;;4951755;28;20203;-64
2022/05/24 00:32:38;;;;;;;7.82;6.45;;;16.00;99.90;;;;;;4964270;28;20208;-64
2022/05/24 00:35:06;;;;;;;7.85;6.35;;;16.10;99.90;;;;;;4963588;28;20237;-64
2022/05/24 00:37:36;;;;;;;8.73;6.93;;;16.00;99.90;;;;;;4960643;28;20203;-64
2022/05/24 00:40:04;;;;;;;7.22;6.32;;;15.90;99.90;;;;;;4952526;28;20219;-64
2022/05/24 00:42:33;;;;;;;7.93;5.90;;;16.00;99.90;;;;;;4953994;28;20214;-64
2022/05/24 00:45:05;;;;;;;14.40;6.50;;;15.60;99.90;;;;;;4940843;28;20231;-64
2022/05/24 00:47:37;;;;;;;9.43;6.93;;;13.50;99.90;;;;;;4950065;28;20204;-64
2022/05/24 00:50:08;;;;;;;8.63;5.97;;;15.90;99.90;;;;;;4955786;28;20212;-64
2022/05/24 00:52:44;;;;;;;8.25;6.78;;;16.00;99.90;;;;;;4960553;28;20262;-64
2022/05/24 00:55:14;;;;;;;9.82;7.20;;;16.00;99.90;;;;;;4961589;28;20203;-64
2022/05/24 00:57:47;;;;;;;11.63;8.25;;;16.00;99.90;;;;;;4941175;28;20569;-64
2022/05/24 01:00:17;;;;;;;9.68;7.05;;;16.00;99.90;;;;;;4946656;28;20239;-64
2022/05/24 01:02:45;;;;;;;12.73;8.40;;;15.90;99.90;;;;;;4958770;28;20204;-64
2022/05/24 01:05:15;;;;;;;13.35;8.82;;;15.80;99.90;;;;;;4966308;28;20231;-64
2022/05/24 01:07:44;;;;;;;12.63;9.40;;;15.90;99.90;;;;;;4957746;28;20673;-64
2022/05/24 01:10:16;;;;;;;11.93;8.98;;;15.90;99.90;;;;;;4976065;28;20223;-64
2022/05/24 01:12:49;;;;;;;11.13;8.90;;;15.90;99.90;;;;;;4953234;28;20222;-64
2022/05/24 01:15:17;;;;;;;14.35;9.00;;;15.80;99.90;;;;;;4946762;28;20227;-64
2022/05/24 01:17:45;;;;;;;12.23;9.00;;;15.80;99.90;;;;;;4960275;28;20196;-64
2022/05/24 01:20:13;;;;;;;12.07;9.18;;;15.80;99.90;;;;;;4970730;28;20218;-64
2022/05/24 01:23:12;;;;;;;11.65;8.52;;;15.80;99.90;;;;;;4955316;28;20206;-64
2022/05/24 01:25:46;;;;;;;9.98;7.97;;;15.80;99.90;;;;;;4970584;28;20605;-64
2022/05/24 01:28:23;;;;;;;11.35;8.52;;;15.80;99.90;;;;;;4953753;28;20207;-64
2022/05/24 01:30:50;;;;;;;11.65;8.75;;;15.70;99.90;;;;;;4944236;28;20807;-64
2022/05/24 01:36:11;;;;;;;9.32;7.63;;;15.70;99.90;;;;;;4951832;28;20273;-63
2022/05/24 01:38:40;;;;;;;9.80;7.35;;;15.70;99.90;;;;;;4967374;28;20877;-64
2022/05/24 01:41:08;;;;;;;10.32;6.78;;;15.70;99.90;;;;;;4968814;28;20948;-64
2022/05/24 01:43:38;;;;;;;7.38;6.68;;;15.70;99.90;;;;;;4965879;28;20691;-64
2022/05/24 01:46:10;;;;;;;9.75;6.63;;;15.70;99.90;;;;;;4943990;28;20988;-64
2022/05/24 01:48:41;;;;;;;9.75;7.25;;;15.70;99.90;;;;;;4967903;28;20205;-64
2022/05/24 01:51:10;;;;;;;9.55;7.28;;;16.10;99.90;;;;;;4961446;28;20250;-64
2022/05/24 01:53:55;;;;;;;6.43;5.65;;;15.70;99.90;;;;;;4965550;28;20223;-64
2022/05/24 01:56:27;;;;;;;8.18;5.68;;;15.60;99.90;;;;;;4973621;28;20573;-63
2022/05/24 01:59:00;;;;;;;8.63;5.35;;;15.60;99.90;;;;;;4955697;28;20978;-64
2022/05/24 02:01:38;;;;;;;8.18;5.00;;;15.50;99.90;;;;;;4944316;28;20763;-63
2022/05/24 02:04:06;;;;;;;6.55;5.30;;;15.70;99.90;;;;;;4966587;28;20249;-64
2022/05/24 02:06:33;;;;;;;8.10;4.38;;;15.50;99.90;;;;;;4951455;28;20204;-64
2022/05/24 02:09:00;;;;;;;6.53;4.38;;;15.50;99.90;;;;;;4970274;28;20200;-64
2022/05/24 02:11:29;;;;;;;6.90;4.90;;;15.50;99.90;;;;;;4962057;28;20699;-63
2022/05/24 02:14:02;;;;;;;6.60;4.75;;;15.50;99.90;;;;;;4971351;28;20834;-63
2022/05/24 02:16:33;;;;;;;5.95;4.53;;;15.60;99.90;;;;;;4952793;28;20235;-63
2022/05/24 02:19:00;;;;;;;7.75;4.80;;;15.50;99.90;;;;;;4963180;28;20278;-64
2022/05/24 02:21:27;;;;;;;7.25;4.15;;;15.50;99.90;;;;;;4961234;28;20211;-63
2022/05/24 02:23:54;;;;;;;5.60;3.88;;;15.50;99.90;;;;;;4962055;28;20684;-64
2022/05/24 02:26:23;;;;;;;8.98;3.85;;;15.50;99.90;;;;;;4963219;28;20582;-64
2022/05/24 02:28:52;;;;;;;7.88;4.15;;;15.50;99.90;;;;;;4957970;28;20219;-64
2022/05/24 02:31:21;;;;;;;4.82;4.32;;;15.50;99.90;;;;;;4957232;28;20203;-63
2022/05/24 02:33:48;;;;;;;4.68;3.45;;;15.40;99.90;;;;;;4950635;28;20212;-64
2022/05/24 02:36:17;;;;;;;5.75;4.20;;;15.40;99.90;;;;;;4975175;28;20245;-64
2022/05/24 02:38:44;;;;;;;4.88;3.90;;;15.30;99.90;;;;;;4957131;28;20660;-64
2022/05/24 02:41:28;;;;;;;4.85;3.90;;;15.40;99.90;;;;;;4961417;28;20677;-64
2022/05/24 02:43:56;;;;;;;4.78;3.53;;;15.30;99.90;;;;;;4962268;28;20207;-64
2022/05/24 02:46:24;;;;;;;6.75;3.70;;;15.20;99.90;;;;;;4953760;28;20207;-63
2022/05/24 02:48:51;;;;;;;6.78;3.67;;;15.20;99.90;;;;;;4953506;28;20207;-63
2022/05/24 02:51:18;;;;;;;5.80;3.92;;;15.20;99.90;;;;;;4974063;28;20195;-64
2022/05/24 02:53:46;;;;;;;6.00;3.72;;;15.40;99.90;;;;;;4960679;28;20215;-64
2022/05/24 02:56:14;;;;;;;4.70;3.20;;;15.30;99.90;;;;;;4960405;28;20216;-64
2022/05/24 02:58:42;;;;;;;7.25;3.55;;;15.20;99.90;;;;;;4955875;28;20195;-64
2022/05/24 03:01:15;;;;;;;5.15;3.42;;;15.20;99.90;;;;;;4965843;28;20222;-64
2022/05/24 03:03:43;;;;;;;6.05;3.47;;;15.20;99.90;;;;;;4936508;28;20217;-64
2022/05/24 03:06:10;;;;;;;8.65;3.97;;;15.20;99.90;;;;;;4970902;28;20231;-64
2022/05/24 03:11:21;;;;;;;7.07;3.60;;;15.70;99.90;;;;;;4959618;28;20335;-64
2022/05/24 03:16:32;;;;;;;4.45;3.40;;;15.00;99.90;;;;;;4969728;28;20234;-64
2022/05/24 03:19:01;;;;;;;6.97;3.38;;;15.10;99.90;;;;;;4938094;28;20239;-64
2022/05/24 03:21:28;;;;;;;3.28;2.95;;;15.00;99.90;;;;;;4971108;28;20195;-63
2022/05/24 03:23:55;;;;;;;5.60;3.25;;;14.90;99.90;;;;;;4958867;28;20689;-64
2022/05/24 03:26:22;;;;;;;6.57;3.15;;;14.90;99.90;;;;;;4955448;28;20227;-63
2022/05/24 03:28:49;;;;;;;4.40;3.08;;;14.90;99.90;;;;;;4951928;28;20214;-64
2022/05/24 03:31:16;;;;;;;6.20;3.38;;;14.80;99.90;;;;;;4969795;28;20208;-64
2022/05/24 03:33:43;;;;;;;4.85;3.42;;;14.70;99.90;;;;;;4953912;28;20211;-64
2022/05/24 03:36:12;;;;;;;3.78;2.78;;;14.80;99.90;;;;;;4950668;28;20223;-64
2022/05/24 03:38:39;;;;;;;6.85;3.42;;;14.80;99.90;;;;;;4948776;28;20891;-63
2022/05/24 03:41:06;;;;;;;6.60;3.40;;;14.70;99.90;;;;;;4955815;28;20212;-63
2022/05/24 03:43:33;;;;;;;5.50;3.47;;;14.70;99.90;;;;;;4954264;28;20223;-64
2022/05/24 03:46:03;;;;;;;6.18;3.38;;;14.70;99.90;;;;;;4953487;28;20233;-63
2022/05/24 03:48:30;;;;;;;5.25;3.42;;;14.70;99.90;;;;;;4965284;28;20290;-64
2022/05/24 03:50:57;;;;;;;4.18;2.88;;;14.60;99.90;;;;;;4937086;28;20399;-63
2022/05/24 03:53:26;;;;;;;6.32;3.55;;;14.70;99.90;;;;;;4969595;28;20204;-64
2022/05/24 03:55:54;;;;;;;6.32;3.58;;;14.70;99.90;;;;;;4960000;28;20213;-64
2022/05/24 03:58:21;;;;;;;3.90;3.33;;;14.70;99.90;;;;;;4960465;28;20203;-63
2022/05/24 04:00:48;;;;;;;5.13;2.90;;;14.70;99.90;;;;;;4957373;28;20215;-63
2022/05/24 04:03:15;;;;;;;7.53;3.42;;;14.70;99.90;;;;;;4968519;28;20207;-64
2022/05/24 04:05:43;;;;;;;7.60;3.63;;;13.80;99.90;;;;;;4936334;28;20236;-64
2022/05/24 04:08:10;;;;;;;5.85;3.85;;;14.80;99.90;;;;;;4969689;28;20629;-64
2022/05/24 04:10:39;;;;;;;6.05;4.05;;;14.80;99.90;;;;;;4958913;28;20199;-64
2022/05/24 04:13:07;;;;;;;5.82;3.85;;;14.80;99.90;;;;;;4973232;28;20196;-63
2022/05/24 04:15:34;;;;;;;6.90;4.18;;;14.80;99.90;;;;;;4957116;28;20290;-64
2022/05/24 04:18:01;;;;;;;6.00;3.80;;;14.80;99.90;;;;;;4962844;28;20203;-64
2022/05/24 04:20:29;;;;;;;5.13;3.85;;;14.80;99.90;;;;;;4952453;28;20205;-64
2022/05/24 04:22:57;;;;;;;6.40;3.95;;;14.80;99.90;;;;;;4959082;28;20203;-64
2022/05/24 04:25:25;;;;;;;5.10;4.18;;;14.90;99.90;;;;;;4966442;28;21628;-64
2022/05/24 04:27:53;;;;;;;9.63;4.63;;;14.80;99.90;;;;;;4965593;28;20305;-63
2022/05/24 04:30:20;;;;;;;4.90;3.95;;;14.90;99.90;;;;;;4950673;28;20211;-63
2022/05/24 04:32:47;;;;;;;6.07;3.95;;;14.90;99.90;;;;;;4950849;28;20674;-64
2022/05/24 04:35:14;;;;;;;8.40;4.97;;;14.90;99.90;;;;;;4950393;28;20208;-63
2022/05/24 04:37:41;;;;;;;9.75;5.63;;;15.00;99.90;;;;;;4946381;28;21122;-64
2022/05/24 04:40:09;;;;;;;8.57;6.40;;;15.00;99.90;;;;;;4972548;28;20199;-64
2022/05/24 04:42:35;;;;;;;7.75;6.00;;;15.00;99.90;;;;;;4944611;28;20211;-64
2022/05/24 04:45:07;;;;;;;9.18;6.13;;;15.00;99.90;;;;;;4965966;28;20715;-65
2022/05/24 04:47:35;;;;;;;11.65;7.22;;;15.10;99.90;;;;;;4957580;28;20302;-63
2022/05/24 04:50:05;;;;;;;9.50;6.25;;;15.10;99.90;;;;;;4948374;28;20204;-64
2022/05/24 04:52:34;;;;;;;9.48;6.50;;;15.10;99.90;;;;;;4947393;28;20250;-64
2022/05/24 04:55:03;;;;;;;8.05;6.60;;;15.10;99.90;;;;;;4972913;28;20561;-64
2022/05/24 04:57:30;;;;;;;11.45;6.85;;;15.20;99.90;;;;;;4958029;28;20227;-64
2022/05/24 04:59:57;;;;;;;8.38;7.00;;;15.40;99.90;;;;;;4957820;28;20223;-64
2022/05/24 05:02:25;;;;;;;9.65;6.57;;;15.20;99.90;;;;;;4961873;28;20999;-64
2022/05/24 05:04:54;;;;;;;10.38;7.05;;;15.30;99.90;;;;;;4952852;28;20208;-64
2022/05/24 05:07:21;;;;;;;10.00;7.93;;;15.40;99.90;;;;;;4946954;28;20212;-64
2022/05/24 05:09:50;;;;;;;10.25;7.72;;;15.30;99.90;;;;;;4953229;28;20310;-64
2022/05/24 05:12:17;;;;;;;13.20;6.70;;;15.40;99.90;;;;;;4964178;28;22555;-63
2022/05/24 05:14:44;;;;;;;11.18;8.05;;;15.40;99.90;;;;;;4953361;28;20231;-65
2022/05/24 05:17:12;;;;;;;10.00;7.55;;;15.40;99.90;;;;;;4961827;28;20212;-64
2022/05/24 05:19:43;;;;;;;12.35;9.73;;;16.00;99.90;;;;;;4972546;28;20615;-63
2022/05/24 05:22:10;;;;;;;13.52;8.40;;;15.30;99.90;;;;;;4942409;28;20830;-64
2022/05/24 05:24:37;;;;;;;12.57;9.77;;;15.40;99.90;;;;;;4955080;28;20211;-64
2022/05/24 05:27:05;;;;;;;14.93;9.85;;;15.40;99.90;;;;;;4945566;28;21208;-64
2022/05/24 05:32:21;;;;;;;13.18;10.13;;;15.50;99.90;;;;;;4964909;28;20771;-63
2022/05/24 05:34:50;;;;;;;13.18;10.55;;;15.80;99.90;;;;;;4958235;28;20234;-65
2022/05/24 05:37:17;;;;;;;13.30;10.02;;;15.50;99.90;;;;;;4968938;28;20277;-63
2022/05/24 05:39:44;;;;;;;13.15;10.57;;;15.50;99.90;;;;;;4941994;28;20207;-63
2022/05/24 05:42:11;;;;;;;14.43;10.52;;;15.50;99.90;;;;;;4954594;28;20330;-63
2022/05/24 05:44:39;;;;;;;15.15;11.32;;;15.70;99.90;;;;;;4946760;28;20216;-63
2022/05/24 05:47:06;;;;;;;15.80;11.73;;;15.40;99.90;;;;;;4969950;28;20231;-63
2022/05/24 05:49:33;;;;;;;13.45;11.15;;;15.50;99.90;;;;;;4964140;28;20207;-63
2022/05/24 05:52:02;;;;;;;21.17;12.40;;;16.60;99.90;;;;;;4956846;28;20213;-63
2022/05/24 05:54:28;;;;;;;18.45;12.57;;;15.60;99.90;;;;;;4942916;28;20212;-66
2022/05/24 05:56:55;;;;;;;14.32;11.45;;;15.60;99.90;;;;;;4957554;28;20203;-63
2022/05/24 05:59:22;;;;;;;15.07;11.45;;;15.70;99.90;;;;;;4951129;28;20218;-63
2022/05/24 06:01:49;;;;;;;16.90;12.82;;;15.80;99.90;;;;;;4969696;28;20227;-63
2022/05/24 06:04:16;;;;;;;17.65;12.23;;;15.80;99.90;;;;;;4963189;28;20652;-63
2022/05/24 06:06:45;;;;;;;16.30;12.52;;;15.80;99.90;;;;;;4971707;28;20228;-64
2022/05/24 06:09:14;;;;;;;22.98;13.23;;;15.90;99.90;;;;;;4956145;28;20247;-63
2022/05/24 06:11:41;;;;;;;17.15;13.30;;;15.90;99.90;;;;;;4949457;28;20207;-63
2022/05/24 06:14:09;;;;;;;18.90;13.25;;;15.90;99.90;;;;;;4951247;28;23174;-63
2022/05/24 06:16:36;;;;;;;16.55;13.00;;;15.90;99.90;;;;;;4957909;28;20215;-63
2022/05/24 06:19:04;;;;;;;19.83;13.48;;;16.00;99.90;;;;;;4955920;28;20309;-63
2022/05/24 06:21:33;;;;;;;17.50;13.73;;;15.90;99.90;;;;;;4963508;28;20235;-63
2022/05/24 06:24:01;;;;;;;21.35;13.52;;;16.00;99.90;;;;;;4954613;28;21311;-63
2022/05/24 06:26:30;;;;;;;17.00;12.90;;;16.00;99.90;;;;;;4956452;28;20234;-64
2022/05/24 06:28:57;;;;;;;16.33;13.02;;;16.00;99.90;;;;;;4941974;28;20223;-63
2022/05/24 06:31:25;;;;;;;17.30;13.50;;;15.90;99.90;;;;;;4960946;28;20692;-63
2022/05/24 06:33:52;;;;;;;19.63;14.18;;;15.00;99.90;;;;;;4957273;28;20210;-63
2022/05/24 06:36:20;;;;;;;17.05;13.70;;;15.90;99.90;;;;;;4964067;28;20709;-63
2022/05/24 06:38:47;;;;;;;17.08;13.30;;;15.90;99.90;;;;;;4964071;28;20203;-64
2022/05/24 06:41:14;;;;;;;17.02;13.00;;;16.00;99.90;;;;;;4943717;28;20300;-63
2022/05/24 06:43:42;;;;;;;17.83;12.57;;;16.00;99.90;;;;;;4957042;28;20208;-64
2022/05/24 06:46:09;;;;;;;15.98;13.05;;;16.00;99.90;;;;;;4954451;28;20885;-64
2022/05/24 06:48:37;;;;;;;15.85;13.57;;;16.00;99.90;;;;;;4965777;28;20203;-63
2022/05/24 06:51:10;;;;;;;18.85;13.50;;;16.00;99.90;;;;;;4946260;28;20215;-63
2022/05/24 06:53:37;;;;;;;19.83;13.18;;;16.00;99.90;;;;;;4970006;28;20206;-63
2022/05/24 06:56:05;;;;;;;21.20;13.60;;;18.20;99.90;;;;;;4934132;28;20664;-64
2022/05/24 06:58:32;;;;;;;18.02;14.32;;;17.40;99.90;;;;;;4952323;28;20231;-64
2022/05/24 07:03:47;;;;;;;20.27;13.90;;;16.00;99.90;;;;;;4954488;28;20242;-63
2022/05/24 07:06:15;;;;;;;17.83;13.93;;;16.10;99.90;;;;;;4947592;28;20237;-63
2022/05/24 07:08:43;;;;;;;21.67;15.35;;;16.20;99.90;;;;;;4968129;28;20859;-64
2022/05/24 07:11:11;;;;;;;16.42;13.40;;;16.10;99.90;;;;;;4946151;28;20231;-64
2022/05/24 07:13:39;;;;;;;18.27;13.98;;;16.10;99.90;;;;;;4953531;28;20230;-64
2022/05/24 07:16:08;;;;;;;17.80;13.73;;;16.10;99.90;;;;;;4960069;28;20207;-65
2022/05/24 07:18:35;;;;;;;18.60;13.77;;;16.10;99.90;;;;;;4961452;28;20200;-64
2022/05/24 07:21:02;;;;;;;19.17;13.80;;;16.20;99.90;;;;;;4962694;28;20575;-64
2022/05/24 07:23:28;;;;;;;18.75;14.50;;;16.20;99.90;;;;;;4941161;28;23849;-65
2022/05/24 07:26:07;;;;;;;17.67;13.02;;;16.30;99.90;;;;;;4956874;28;20224;-65
2022/05/24 07:28:34;;;;;;;18.85;14.02;;;15.30;99.90;;;;;;4953019;28;21450;-63
2022/05/24 07:31:01;;;;;;;19.20;14.20;;;16.30;99.90;;;;;;4960775;28;20722;-65
2022/05/24 07:33:29;;;;;;;18.65;14.75;;;16.30;99.90;;;;;;4954663;28;20207;-63
2022/05/24 07:35:56;;;;;;;18.90;14.05;;;16.30;99.90;;;;;;4977438;28;20318;-63
2022/05/24 07:38:23;;;;;;;19.92;15.93;;;16.40;99.90;;;;;;4945055;28;20254;-64
2022/05/24 07:46:19;;;;;;;18.98;16.02;;;17.10;99.90;;;;;;4963812;28;20235;-65
2022/05/24 07:48:47;;;;;;;21.55;15.25;;;16.60;99.90;;;;;;4949842;28;20238;-63
2022/05/24 07:51:14;;;;;;;18.08;14.77;;;16.50;99.90;;;;;;4946085;28;20207;-63
2022/05/24 07:53:41;;;;;;;20.95;14.32;;;16.40;99.90;;;;;;4937191;28;20204;-64
2022/05/24 07:56:08;;;;;;;24.02;17.70;;;16.20;99.90;;;;;;4948423;28;20211;-63
2022/05/24 07:58:35;;;;;;;18.33;14.80;;;16.40;99.90;;;;;;4947855;28;20290;-64
2022/05/24 08:01:02;;;;;;;19.45;14.30;;;16.40;99.90;;;;;;4957039;28;20219;-63
2022/05/24 08:03:29;;;;;;;20.27;13.65;;;16.40;99.90;;;;;;4956356;28;20686;-63
2022/05/24 08:05:58;;;;;;;19.67;12.93;;;16.40;99.90;;;;;;4953002;28;20731;-63
2022/05/24 08:08:24;;;;;;;17.48;12.15;;;16.30;99.90;;;;;;4941810;28;20228;-64
2022/05/24 08:10:51;;;;;;;14.50;11.75;;;16.30;99.90;;;;;;4936695;28;20215;-64
2022/05/24 08:13:20;;;;;;;16.67;11.50;;;16.30;99.90;;;;;;4945399;28;20293;-65
2022/05/24 08:15:50;;;;;;;13.60;11.40;;;16.30;99.90;;;;;;4950717;28;20215;-63
2022/05/24 08:18:17;;;;;;;19.98;11.50;;;16.20;99.90;;;;;;4945493;28;20219;-64
2022/05/24 08:20:44;;;;;;;17.00;11.75;;;16.20;99.90;;;;;;4958104;28;20574;-64
2022/05/24 08:23:12;;;;;;;19.95;14.25;;;16.50;99.90;;;;;;4956875;28;20205;-64
2022/05/24 08:25:39;;;;;;;22.67;15.88;;;16.30;99.90;;;;;;4958727;28;20195;-64
2022/05/24 08:28:07;;;;;;;20.02;14.90;;;16.20;99.90;;;;;;4927145;28;20227;-64
2022/05/24 08:30:36;;;;;;;23.58;16.15;;;16.30;99.90;;;;;;4947457;28;20705;-65
2022/05/24 08:33:04;;;;;;;25.45;17.23;;;16.20;99.90;;;;;;4947374;28;20669;-64
2022/05/24 08:35:32;;;;;;;21.30;14.65;;;16.00;99.90;;;;;;4963640;28;20215;-64
2022/05/24 08:37:59;;;;;;;21.05;13.63;;;16.00;99.90;;;;;;4949929;28;20214;-64
2022/05/24 08:40:28;;;;;;;18.73;13.10;;;16.00;99.90;;;;;;4947918;28;20203;-64
2022/05/24 08:43:17;;;;;;;18.15;14.15;;;15.90;99.90;;;;;;4937650;28;20228;-64
2022/05/24 08:48:44;;;;;;;20.00;13.25;;;15.80;99.90;;;;;;4946242;28;20218;-64
2022/05/24 08:51:16;;;;;;;17.67;13.57;;;15.80;99.90;;;;;;4964595;28;20874;-65
2022/05/24 08:53:46;;;;;;;18.42;14.10;;;15.80;99.90;;;;;;4942125;28;20226;-64
2022/05/24 08:56:18;;;;;;;20.13;15.23;;;15.80;99.90;;;;;;4945974;28;20705;-65
2022/05/24 08:58:50;;;;;;;23.02;16.35;;;15.80;99.90;;;;;;4939605;28;20246;-64
2022/05/24 09:01:21;;;;;;;20.88;15.60;;;15.70;99.90;;;;;;4946765;28;20290;-65
2022/05/24 09:03:48;;;;;;;27.17;15.55;;;15.80;99.90;;;;;;4952651;28;20238;-64
2022/05/24 09:06:27;;;;;;;19.55;14.13;;;15.80;99.90;;;;;;4949727;28;20243;-65
2022/05/24 09:09:07;;;;;;;23.67;14.45;;;15.90;99.90;;;;;;4939888;28;20223;-65
2022/05/24 09:11:53;;;;;;;20.02;13.25;;;15.80;99.90;;;;;;4959548;28;20215;-65
2022/05/24 09:14:29;;;;;;;18.42;12.68;;;16.00;99.90;;;;;;4957594;28;20702;-64
2022/05/24 09:17:04;;;;;;;19.25;13.90;;;15.90;99.90;;;;;;4951428;28;20203;-64
2022/05/24 09:19:35;;;;;;;17.13;13.05;;;15.20;99.90;;;;;;4949630;28;20230;-64
2022/05/24 09:22:03;;;;;;;17.75;11.60;;;15.80;99.90;;;;;;4964756;28;20314;-64
2022/05/24 09:24:41;;;;;;;19.25;11.10;;;16.00;99.90;;;;;;4946895;28;20199;-64
2022/05/24 09:27:13;;;;;;;22.70;11.82;;;15.60;99.90;;;;;;4953106;28;20235;-64
2022/05/24 09:30:03;;;;;;;13.30;10.75;;;15.60;99.90;;;;;;4949447;28;20215;-64
2022/05/24 09:32:37;;;;;;;15.00;9.23;;;15.50;99.90;;;;;;4938472;28;20215;-64
2022/05/24 09:35:11;;;;;;;16.63;10.23;;;15.70;99.90;;;;;;4955060;28;20230;-64
2022/05/24 09:37:41;;;;;;;13.25;9.88;;;15.70;99.90;;;;;;4959303;28;20207;-64
2022/05/24 09:40:20;;;;;;;13.32;10.20;;;15.60;99.90;;;;;;4954289;28;20303;-64
2022/05/24 09:42:49;;;;;;;15.98;10.15;;;15.70;99.90;;;;;;4956447;28;20245;-65
2022/05/24 09:45:20;;;;;;;20.38;11.77;;;15.80;99.90;;;;;;4959612;28;20227;-64
2022/05/24 09:47:57;;;;;;;17.67;10.40;;;15.80;99.90;;;;;;4951956;28;20219;-65
2022/05/24 09:50:29;;;;;;;16.30;10.32;;;15.80;99.90;;;;;;4963672;28;20207;-65
2022/05/24 09:53:10;;;;;;;13.13;9.82;;;15.80;99.90;;;;;;4951888;28;20683;-64
2022/05/24 09:55:41;;;;;;;16.95;10.10;;;15.80;99.90;;;;;;4952219;28;20305;-65
2022/05/24 09:58:26;;;;;;;15.93;10.38;;;19.50;99.90;;;;;;4968703;28;20736;-66
2022/05/24 10:00:56;;;;;;;15.68;10.80;;;16.10;99.90;;;;;;4949055;28;20878;-65
2022/05/24 10:03:27;;;;;;;13.38;9.88;;;16.10;99.90;;;;;;4956376;28;21116;-64
2022/05/24 10:05:57;;;;;;;12.43;9.40;;;16.40;99.90;;;;;;4965887;28;20207;-64
2022/05/24 10:08:23;;;;;;;12.35;9.07;;;16.50;99.90;;;;;;4957366;28;20235;-64
2022/05/24 10:10:56;;;;;;;14.05;9.48;;;16.30;99.90;;;;;;4950146;28;20223;-65
2022/05/24 10:13:37;;;;;;;13.35;9.20;;;16.30;99.90;;;;;;4954981;28;20227;-64
2022/05/24 10:16:14;;;;;;;11.27;9.13;;;16.40;99.90;;;;;;4951673;28;20207;-64
2022/05/24 10:18:54;;;;;;;14.25;9.77;;;17.30;99.90;;;;;;4945896;28;20951;-64
2022/05/24 10:21:29;;;;;;;14.23;9.48;;;16.70;99.90;;;;;;4961852;28;20216;-64
2022/05/24 10:24:05;;;;;;;11.85;9.00;;;16.50;99.90;;;;;;4954671;28;20797;-64
2022/05/24 10:26:43;;;;;;;11.80;9.05;;;16.50;99.90;;;;;;4948503;28;20227;-64
2022/05/24 10:29:19;;;;;;;13.60;9.48;;;16.70;99.90;;;;;;4947318;28;20322;-64
2022/05/24 10:31:53;;;;;;;11.95;8.52;;;16.90;99.90;;;;;;4947805;28;20815;-64
2022/05/24 10:40:17;;;;;;;13.68;8.73;;;18.00;99.90;;;;;;4954654;28;20239;-65
2022/05/24 10:43:05;;;;;;;14.60;8.60;;;16.70;99.90;;;;;;4938577;28;20351;-64
2022/05/24 10:48:34;;;;;;;15.45;8.73;;;16.40;99.90;;;;;;4959670;28;20230;-64
2022/05/24 10:51:10;;;;;;;13.80;8.27;;;16.60;99.90;;;;;;4933331;28;20230;-64
2022/05/24 10:53:45;;;;;;;12.30;9.43;;;16.80;99.90;;;;;;4952752;28;20579;-64
2022/05/24 10:56:30;;;;;;;10.90;7.60;;;16.90;99.90;;;;;;4961199;28;20239;-64
2022/05/24 10:59:04;;;;;;;12.70;7.63;;;16.90;99.90;;;;;;4932625;28;20207;-65
2022/05/24 11:01:38;;;;;;;10.88;7.45;;;16.90;99.90;;;;;;4953458;28;20206;-64
2022/05/24 11:04:10;;;;;;;7.93;7.13;;;17.00;99.90;;;;;;4955324;28;20206;-64
2022/05/24 11:06:41;;;;;;;11.10;7.43;;;16.90;99.90;;;;;;4953006;28;20229;-64
2022/05/24 11:09:12;;;;;;;12.77;7.68;;;17.10;99.90;;;;;;4957045;28;20227;-64
2022/05/24 11:11:47;;;;;;;9.75;6.47;;;17.30;99.90;;;;;;4968980;28;20206;-64
2022/05/24 11:14:19;;;;;;;10.07;7.35;;;17.10;99.90;;;;;;4939182;28;20358;-65
2022/05/24 11:16:49;;;;;;;7.90;6.68;;;17.10;99.90;;;;;;4955536;28;20206;-64
2022/05/24 11:19:18;;;;;;;9.70;6.68;;;16.10;99.90;;;;;;4954915;28;20227;-64
2022/05/24 11:21:51;;;;;;;7.13;6.45;;;17.50;99.90;;;;;;4942883;28;20230;-63
2022/05/24 11:24:25;;;;;;;10.93;7.80;;;17.50;99.90;;;;;;4950768;28;20712;-64
2022/05/24 11:26:56;;;;;;;9.60;8.63;;;17.30;99.90;;;;;;4965444;28;20691;-64
2022/05/24 11:29:28;;;;;;;12.57;8.35;;;17.20;99.90;;;;;;4935259;28;20281;-64
2022/05/24 11:32:03;;;;;;;11.32;9.32;;;17.10;99.90;;;;;;4940596;28;20354;-64
2022/05/24 11:34:34;;;;;;;9.98;8.52;;;16.90;99.90;;;;;;4963042;28;20227;-64
2022/05/24 11:37:13;;;;;;;16.48;9.43;;;16.90;99.90;;;;;;4937314;28;25789;-64
2022/05/24 11:39:43;;;;;;;11.23;7.55;;;17.00;99.90;;;;;;4951703;28;20231;-64
2022/05/24 11:42:24;;;;;;;14.15;8.43;;;17.00;99.90;;;;;;4952668;28;20203;-65
2022/05/24 11:44:53;;;;;;;20.73;8.57;;;17.20;99.90;;;;;;4954781;28;20211;-64
2022/05/24 11:47:59;;;;;;;9.70;7.43;;;17.10;99.90;;;;;;4940589;28;20660;-64
2022/05/24 11:50:43;;;;;;;9.57;7.32;;;17.40;99.90;;;;;;4967293;28;20614;-64
2022/05/24 11:53:32;;;;;;;13.00;8.35;;;17.50;99.90;;;;;;4953485;28;20345;-64
2022/05/24 11:56:18;;;;;;;10.38;7.50;;;16.80;99.90;;;;;;4955149;28;20941;-64
2022/05/24 11:59:00;;;;;;;9.48;7.40;;;17.10;99.90;;;;;;4955858;28;20205;-64
2022/05/24 12:01:48;;;;;;;10.25;6.40;;;17.80;99.90;;;;;;4936046;28;20563;-64
2022/05/24 12:10:04;;;;;;;9.90;7.18;;;17.80;99.90;;;;;;4961274;28;20218;-64
2022/05/24 12:12:33;;;;;;;8.35;7.18;;;17.70;99.90;;;;;;4961692;28;20211;-63
2022/05/24 12:15:14;;;;;;;12.10;7.53;;;17.90;99.90;;;;;;4938717;28;20235;-64
2022/05/24 12:17:41;;;;;;;7.75;5.93;;;17.80;99.90;;;;;;4942629;28;20677;-63
2022/05/24 12:20:28;;;;;;;6.55;5.78;;;17.90;99.90;;;;;;4963944;28;20682;-64
2022/05/24 12:23:18;;;;;;;9.27;6.55;;;17.90;99.90;;;;;;4950920;28;20605;-64
2022/05/24 12:25:54;;;;;;;7.95;6.63;;;17.90;99.90;;;;;;4953752;28;20240;-64
2022/05/24 12:28:23;;;;;;;8.52;6.85;;;17.70;99.90;;;;;;4957606;28;20236;-64
2022/05/24 12:30:52;;;;;;;8.50;6.28;;;17.80;99.90;;;;;;4954938;28;20199;-63
2022/05/24 12:33:28;;;;;;;6.22;5.63;;;17.80;99.90;;;;;;4936579;28;20476;-63
2022/05/24 12:36:15;;;;;;;2.53;2.33;;;17.80;99.90;;;;;;4957835;28;20223;-64
2022/05/24 12:38:48;;;;;;;3.97;1.60;;;17.00;99.90;;;;;;4913723;28;20227;-63
2022/05/24 12:41:20;;;;;;;1.50;1.40;;;16.60;99.90;;;;;;4950379;28;20242;-63
2022/05/24 12:43:57;;;;;;;1.80;1.20;;;16.20;99.90;;;;;;4937716;28;20231;-63
2022/05/24 12:46:29;;;;;;;3.20;1.50;;;15.60;99.90;;;;;;4951461;28;21185;-63
2022/05/24 12:49:02;;;;;;;1.90;1.60;;;15.70;99.90;;;;;;4940713;28;20223;-63
2022/05/24 12:51:31;;;;;;;4.07;1.67;;;15.50;99.90;;;;;;4952174;28;20234;-62
2022/05/24 12:54:12;;;;;;;5.53;3.10;;;15.60;99.90;;;;;;4921933;28;20477;-63
2022/05/24 12:56:40;;;;;;;5.95;3.92;;;15.40;99.90;;;;;;4952448;28;20223;-62
2022/05/24 12:59:12;;;;;;;5.32;4.50;;;15.40;99.90;;;;;;4941552;28;20306;-63
2022/05/24 13:01:42;;;;;;;6.40;5.00;;;14.80;99.90;;;;;;4954158;28;20223;-63
2022/05/24 13:04:14;;;;;;;7.10;5.70;;;15.00;99.90;;;;;;4932473;28;21157;-63
2022/05/24 13:06:44;;;;;;;6.13;5.43;;;15.20;99.90;;;;;;4950630;28;20821;-63
2022/05/24 13:09:18;;;;;;;7.05;5.15;;;15.30;99.90;;;;;;4944833;28;20844;-63
2022/05/24 13:11:49;;;;;;;5.35;4.05;;;15.10;99.90;;;;;;4935035;28;20205;-63
2022/05/24 13:14:39;;;;;;;4.90;3.70;;;15.10;99.90;;;;;;4948209;28;20231;-63
2022/05/24 13:17:07;;;;;;;6.50;3.83;;;15.40;99.90;;;;;;4961954;28;20237;-63
2022/05/24 13:19:46;;;;;;;12.15;3.53;;;15.20;99.90;;;;;;4939912;28;21730;-63
2022/05/24 13:22:15;;;;;;;5.70;3.55;;;15.20;99.90;;;;;;4957513;28;20199;-63
2022/05/24 13:24:58;;;;;;;6.80;3.90;;;15.50;99.90;;;;;;4934643;28;20222;-63
2022/05/24 13:27:25;;;;;;;4.60;3.80;;;15.50;99.90;;;;;;4951495;28;20589;-63
2022/05/24 13:35:27;;;;;;;4.13;3.47;;;15.90;99.90;;;;;;4949226;28;20674;-63
2022/05/24 13:37:58;;;;;;;4.00;3.33;;;15.80;99.90;;;;;;4952127;28;20250;-63